sim
Sign-in with your pilot id or email,
or register
Callsign
Passwort

Schedule Details

Flight Number: OEO8594
Departure: Frankfurt Airport (EDDF) at 13:55
Arrival: Bratislava M. R. Stefanik Airport (LZIB) at 15:25

Weather Information
Getting current METAR information for EDDF 280450Z 01016KT CAVOK 14/07 Q1030 TEMPO 01015G25KT
Getting current METAR information for LZIB 280500Z 28005KT CAVOK 15/08 Q1025 NOSIG

Schedule Frequency

Route Map